• Join FlightAware (Why Join?)
  • Login
  • US Flag 
10:36AM EDT


 

Airport Tracker/Info


-or-


 

Live Flight TrackerFlight Track Log ✈ DAL1041 ✈ 31-Aug-2013 ✈ KRIC - KATL

Flight Track Log - Related Links

Times and Time Zones

All times are in EDT time to prevent confusion due to time zone crossing. See the DAL1041 flight status page for this flight to view local times or setup timezone preferences in your user account.

Time Position Orientation Groundspeed Altitude Reporting Facility
EDT Latitude Longitude Course Direction KTS MPH feet Rate Location/Type
12:36PM 37.4667 -77.3333 253° West 185 213 2,100  Level Potomac TRACON
12:37PM 37.4214 -77.3858 223° Southwest 250 288 4,200 2,820 Climbing Washington Center
12:38PM 37.4161 -77.4719 266° West 250 288 7,700 2,340 Climbing Washington Center
12:39PM 37.4061 -77.5658 262° West 263 303 9,000 1,440 Climbing Washington Center
12:40PM 37.3942 -77.6594 261° West 268 308 10,600 1,440 Climbing Washington Center
12:41PM 37.3839 -77.7664 263° West 309 356 11,900 1,800 Climbing Washington Center
12:42PM 37.3230 -78.1083 253° West  Level FlightAware Approximate
12:42PM 37.3711 -77.8942 263° West 347 399 14,300  Level Washington Center
12:43PM 37.3497 -78.0242 258° West 368 423 16,800 2,400 Climbing Washington Center
12:44PM 37.3197 -78.1669 255° West 389 448 19,200 1,560 Climbing Washington Center
12:45PM 37.2894 -78.3094 255° West 401 461 20,000 480 Climbing Washington Center
12:46PM 37.2803 -78.4344 265° West 411 473 20,200 1,140 Climbing Washington Center
12:47PM 37.2767 -78.5831 268° West 416 479 22,300 1,920 Climbing Washington Center
12:48PM 37.2708 -78.7289 267° West 421 484 24,100 1,320 Climbing Washington Center
12:49PM 37.2667 -78.8828 268° West 431 496 25,000 480 Climbing Washington Center
12:50PM 37.2619 -79.0522 268° West 441 507 25,100 1,080 Climbing Washington Center
12:52PM 37.2253 -79.3661 262° West 446 513 28,300 1,560 Climbing Washington Center
12:53PM 37.1911 -79.5183 254° West 452 520 29,900 1,500 Climbing Washington Center
12:54PM 37.1589 -79.6703 255° West 458 527 31,400 1,380 Climbing Washington Center
12:55PM 37.1269 -79.8147 255° West 463 533 32,800 780 Climbing Washington Center
12:56PM 37.0758 -79.9550 245° Southwest 463 533 33,000 60 Climbing Washington Center
12:57PM 36.9942 -80.0778 230° Southwest 454 522 33,000 840 Level Washington Center
12:58PM 36.8956 -80.2233 230° Southwest 460 529 34,900 1,320 Climbing Atlanta Center
12:59PM 36.8100 -80.3572 231° Southwest 460 529 36,000 540 Climbing Atlanta Center
01:00PM 36.7344 -80.4772 232° Southwest 455 524 36,000  Level Atlanta Center
01:01PM 36.6586 -80.5969 232° Southwest 450 518 36,000 480 Level Atlanta Center
01:02PM 36.5828 -80.7192 232° Southwest 455 524 37,000 960 Climbing Atlanta Center
01:03PM 36.5025 -80.8439 231° Southwest 460 529 38,000 1,020 Climbing Atlanta Center
01:04PM 36.4244 -80.9631 231° Southwest 452 520 39,100 900 Climbing Atlanta Center
01:05PM 36.3353 -81.0775 226° Southwest 452 520 39,800 420 Climbing Atlanta Center
01:06PM 36.2519 -81.1656 220° Southwest 445 512 40,000 60 Climbing Atlanta Center
01:07PM 36.1606 -81.2689 222° Southwest 450 518 40,000  Level Atlanta Center
01:08PM 36.0711 -81.3722 223° Southwest 450 518 40,000  Level Atlanta Center
01:09PM 35.9817 -81.4803 224° Southwest 450 518 40,000  Level Atlanta Center
01:10PM 35.8961 -81.5933 227° Southwest 450 518 40,000  Level Atlanta Center
01:11PM 35.8108 -81.7058 227° Southwest 450 518 40,000 -120 Level Atlanta Center
01:12PM 35.7253 -81.8183 227° Southwest 455 524 39,800 -900 Descending Atlanta Center
01:13PM 35.6439 -81.9331 229° Southwest 445 512 38,200 -1,500 Descending Atlanta Center
01:14PM 35.5625 -82.0550 231° Southwest 458 527 36,900 -1,200 Descending Atlanta Center
01:15PM 35.4831 -82.1744 231° Southwest 463 533 35,900 -960 Descending Atlanta Center
01:16PM 35.4119 -82.3086 237° Southwest 469 540 35,000 -600 Descending Atlanta Center
01:17PM 35.3514 -82.4625 244° Southwest 463 533 34,800 -600 Descending Atlanta Center
01:18PM 35.2989 -82.5958 244° Southwest 456 525 33,800 -1,920 Descending Atlanta Center
01:19PM 35.2519 -82.7008 241° Southwest 418 481 31,000 -3,000 Descending Atlanta Center
01:20PM 35.2031 -82.8211 244° Southwest 403 464 27,800 -3,000 Descending Atlanta Center
01:21PM 35.1542 -82.9364 243° Southwest 390 449 25,000 -1,920 Descending Atlanta Center
01:22PM 35.0819 -83.0286 226° Southwest 390 449 24,000 -540 Descending Atlanta Center
01:23PM 34.9867 -83.1161 217° Southwest 399 459 24,000  Level Atlanta Center
01:24PM 34.8869 -83.1956 213° Southwest 433 498 24,000 -300 Level Atlanta Center
01:25PM 34.7894 -83.2800 215° Southwest 439 505 23,400 -960 Descending Atlanta Center
01:26PM 34.6939 -83.3567 213° Southwest 433 498 22,100 -720 Descending Atlanta Center
01:27PM 34.5900 -83.4383 213° Southwest 421 484 22,000 -1,260 Descending Atlanta Center
01:28PM 34.4944 -83.5197 215° Southwest 421 484 19,600 -2,160 Descending Atlanta Center
01:29PM 34.3925 -83.5958 212° Southwest 426 490 17,700 -1,920 Descending Atlanta Center
01:30PM 34.3050 -83.6717 216° Southwest 413 475 15,800 -1,980 Descending Atlanta Center
01:31PM 34.2197 -83.7397 213° Southwest 388 447 13,800 -1,860 Descending Atlanta Center
01:32PM 34.1342 -83.8078 213° Southwest 374 430 12,100 -900 Descending Atlanta Center
01:33PM 34.0550 -83.8808 217° Southwest 374 430 12,000 -240 Descending Atlanta Center
01:34PM 33.9944 -83.9436 221° Southwest 343 395 11,700 -900 Descending Atlanta Center
01:35PM 33.9153 -83.9661 193° South 285 328 10,200 -1,380 Descending Atlanta Center
01:36PM 33.8317 -83.9639 179° South 296 341 9,000 -900 Descending Atlanta Center
01:37PM 33.7503 -83.9639 180° South 296 341 8,500 -720 Descending Atlanta Center
01:38PM 33.6669 -83.9889 194° South 291 335 7,600 -1,020 Descending Atlanta Center
01:39PM 33.6272 -84.0414 228° Southwest 240 276 6,500 -1,080 Descending Atlanta Center
01:41PM 33.6333 -84.1833 273° West 207 238 4,500 -960 Descending Atlanta TRACON
01:42PM 33.6333 -84.2667 270° West 206 237 3,500 -960 Descending Atlanta TRACON
01:43PM 33.6333 -84.3333 270° West 178 205 2,600 -960 Descending Atlanta TRACON
01:44PM 33.6333 -84.3667 270° West 145 167 1,700 -1,020 Descending Atlanta TRACON